Time;durP1;ratioP1;P1;durP2;ratioP2;P2;SDS_P1;SDS_P2;PMS_P1;PMS_P2;Temp;Humidity;BMP_temperature;BMP_pressure;BME280_temperature;BME280_humidity;BME280_pressure;Samples;Min_cycle;Max_cycle;Signal;HPM_P1;HPM_P2
2023/12/29 00:00:33;;;;;;;12.15;10.82;;;;;;;;;;5079573;28;20035;-48
2023/12/29 00:02:58;;;;;;;17.33;13.93;;;;;;;;;;5071081;28;20032;-45
2023/12/29 00:05:23;;;;;;;15.65;11.40;;;;;;;;;;5072454;28;20052;-47
2023/12/29 00:07:49;;;;;;;15.73;11.30;;;;;;;;;;5073680;28;20457;-47
2023/12/29 00:10:14;;;;;;;13.23;11.27;;;;;;;;;;5075250;28;20051;-49
2023/12/29 00:12:40;;;;;;;17.25;13.65;;;;;;;;;;5072223;28;20028;-48
2023/12/29 00:15:05;;;;;;;15.25;11.50;;;;;;;;;;5074767;28;20045;-49
2023/12/29 00:17:32;;;;;;;16.15;12.60;;;;;;;;;;5076560;28;20073;-45
2023/12/29 00:19:57;;;;;;;14.70;11.55;;;;;;;;;;5075510;28;20435;-47
2023/12/29 00:22:25;;;;;;;13.73;12.23;;;;;;;;;;5072792;28;20094;-46
2023/12/29 00:24:50;;;;;;;16.00;11.63;;;;;;;;;;5054475;28;20040;-45
2023/12/29 00:27:16;;;;;;;15.75;11.15;;;;;;;;;;5077143;28;20024;-47
2023/12/29 00:29:42;;;;;;;11.30;9.88;;;;;;;;;;5074444;28;20737;-50
2023/12/29 00:32:07;;;;;;;13.45;11.15;;;;;;;;;;5072204;28;20028;-47
2023/12/29 00:34:33;;;;;;;15.75;11.02;;;;;;;;;;5074136;28;20049;-48
2023/12/29 00:36:58;;;;;;;17.08;10.13;;;;;;;;;;5075414;28;20529;-47
2023/12/29 00:39:28;;;;;;;19.35;11.38;;;;;;;;;;5069772;28;20086;-48
2023/12/29 00:41:56;;;;;;;20.75;12.15;;;;;;;;;;5075039;28;20025;-48
2023/12/29 00:44:21;;;;;;;16.63;12.15;;;;;;;;;;5075042;28;20037;-47
2023/12/29 00:46:46;;;;;;;17.23;12.73;;;;;;;;;;5074775;28;20203;-51
2023/12/29 00:49:12;;;;;;;14.32;11.40;;;;;;;;;;5070466;28;20106;-50
2023/12/29 00:51:43;;;;;;;14.93;10.52;;;;;;;;;;5073344;28;20626;-47
2023/12/29 00:54:08;;;;;;;13.63;11.05;;;;;;;;;;5031283;28;1188032;-46
2023/12/29 00:56:34;;;;;;;14.73;10.65;;;;;;;;;;5073100;28;20081;-49
2023/12/29 00:58:59;;;;;;;17.45;11.00;;;;;;;;;;5073368;28;20510;-48
2023/12/29 01:01:24;;;;;;;14.32;10.32;;;;;;;;;;5073543;28;20029;-47
2023/12/29 01:03:54;;;;;;;14.40;11.38;;;;;;;;;;5073773;28;20040;-47
2023/12/29 01:06:19;;;;;;;13.45;10.38;;;;;;;;;;5074888;28;20466;-51
2023/12/29 01:08:45;;;;;;;11.90;9.52;;;;;;;;;;5071057;28;20932;-46
2023/12/29 01:11:10;;;;;;;10.65;8.27;;;;;;;;;;5072493;28;20045;-47
2023/12/29 01:13:36;;;;;;;13.32;10.52;;;;;;;;;;5050975;28;20041;-46
2023/12/29 01:16:01;;;;;;;14.70;9.77;;;;;;;;;;5074658;28;20036;-51
2023/12/29 01:18:26;;;;;;;14.75;9.63;;;;;;;;;;5070495;28;20036;-49
2023/12/29 01:20:52;;;;;;;12.73;9.80;;;;;;;;;;5073953;28;20070;-48
2023/12/29 01:23:18;;;;;;;14.30;9.45;;;;;;;;;;5070009;28;20116;-50
2023/12/29 01:25:43;;;;;;;14.80;9.90;;;;;;;;;;5073212;28;20455;-47
2023/12/29 01:28:08;;;;;;;12.48;10.32;;;;;;;;;;5074215;28;20524;-49
2023/12/29 01:30:34;;;;;;;11.65;9.00;;;;;;;;;;5074761;28;20102;-45
2023/12/29 01:32:59;;;;;;;13.60;9.90;;;;;;;;;;5072677;28;20028;-48
2023/12/29 01:35:25;;;;;;;16.63;9.50;;;;;;;;;;5065958;28;20156;-46
2023/12/29 01:37:50;;;;;;;13.13;9.45;;;;;;;;;;5073985;28;20032;-52
2023/12/29 01:40:17;;;;;;;9.50;8.55;;;;;;;;;;5074792;28;20788;-47
2023/12/29 01:42:42;;;;;;;11.52;8.95;;;;;;;;;;5072734;28;20058;-50
2023/12/29 01:45:23;;;;;;;15.18;10.95;;;;;;;;;;5074749;28;20093;-48
2023/12/29 01:47:52;;;;;;;16.80;10.93;;;;;;;;;;5068167;28;20037;-53
2023/12/29 01:50:20;;;;;;;15.65;10.88;;;;;;;;;;5072257;28;20040;-48
2023/12/29 01:52:48;;;;;;;11.82;10.50;;;;;;;;;;5076072;28;20048;-47
2023/12/29 01:55:18;;;;;;;13.30;9.02;;;;;;;;;;5077520;28;20095;-51
2023/12/29 01:57:44;;;;;;;12.43;9.63;;;;;;;;;;5078609;28;20127;-46
2023/12/29 02:00:11;;;;;;;11.50;10.23;;;;;;;;;;5073644;28;20078;-46
2023/12/29 02:02:37;;;;;;;10.80;9.30;;;;;;;;;;5065774;28;20044;-47
2023/12/29 02:05:02;;;;;;;11.90;9.10;;;;;;;;;;5089532;28;20669;-48
2023/12/29 02:07:30;;;;;;;14.98;8.88;;;;;;;;;;5079572;28;20021;-46
2023/12/29 02:09:57;;;;;;;11.18;7.95;;;;;;;;;;5074279;28;20032;-51
2023/12/29 02:12:23;;;;;;;11.43;9.60;;;;;;;;;;5077198;28;20089;-51
2023/12/29 02:14:48;;;;;;;9.98;8.65;;;;;;;;;;5077133;28;20036;-51
2023/12/29 02:17:26;;;;;;;9.23;7.80;;;;;;;;;;5075654;28;20036;-47
2023/12/29 02:19:52;;;;;;;11.10;8.82;;;;;;;;;;5072633;28;20047;-46
2023/12/29 02:22:18;;;;;;;10.88;9.75;;;;;;;;;;5079575;28;20021;-47
2023/12/29 02:24:47;;;;;;;10.45;8.85;;;;;;;;;;5075579;28;20040;-47
2023/12/29 02:27:31;;;;;;;9.38;8.35;;;;;;;;;;5075836;28;20399;-47
2023/12/29 02:30:15;;;;;;;13.63;8.05;;;;;;;;;;5073498;28;20052;-48
2023/12/29 02:32:45;;;;;;;10.95;9.20;;;;;;;;;;5075781;28;20154;-49
2023/12/29 02:35:16;;;;;;;14.98;10.68;;;;;;;;;;5074624;28;20037;-49
2023/12/29 02:37:43;;;;;;;10.98;8.95;;;;;;;;;;5075605;28;20386;-52
2023/12/29 02:40:09;;;;;;;14.10;8.57;;;;;;;;;;5074921;28;20082;-48
2023/12/29 02:42:34;;;;;;;10.82;9.52;;;;;;;;;;5081052;28;20019;-49
2023/12/29 02:45:00;;;;;;;12.05;8.52;;;;;;;;;;5076410;28;20036;-48
2023/12/29 02:47:26;;;;;;;13.18;8.57;;;;;;;;;;5056342;28;20028;-47
2023/12/29 02:49:51;;;;;;;14.80;9.98;;;;;;;;;;5070332;28;20040;-46
2023/12/29 02:52:17;;;;;;;12.48;8.82;;;;;;;;;;5079679;28;20074;-47
2023/12/29 02:54:42;;;;;;;12.30;8.80;;;;;;;;;;5075527;28;20041;-48
2023/12/29 02:57:08;;;;;;;14.25;8.48;;;;;;;;;;5075710;28;20024;-46
2023/12/29 02:59:33;;;;;;;13.85;9.50;;;;;;;;;;5072866;28;20075;-49
2023/12/29 03:01:59;;;;;;;10.68;8.70;;;;;;;;;;5055258;28;20021;-48
2023/12/29 03:04:24;;;;;;;9.80;8.52;;;;;;;;;;5080860;28;20036;-49
2023/12/29 03:06:49;;;;;;;9.55;7.15;;;;;;;;;;5076854;28;20032;-49
2023/12/29 03:09:15;;;;;;;9.40;6.25;;;;;;;;;;5065489;28;20095;-53
2023/12/29 03:11:40;;;;;;;8.68;7.20;;;;;;;;;;5076682;28;20024;-47
2023/12/29 03:14:05;;;;;;;9.98;8.90;;;;;;;;;;5078715;28;20052;-50
2023/12/29 03:16:31;;;;;;;8.38;6.50;;;;;;;;;;5073238;28;20657;-48
2023/12/29 03:18:56;;;;;;;8.52;7.07;;;;;;;;;;5081516;28;20068;-50
2023/12/29 03:21:22;;;;;;;8.95;6.75;;;;;;;;;;5073973;28;20087;-49
2023/12/29 03:23:47;;;;;;;9.63;6.63;;;;;;;;;;5073133;28;20090;-48
2023/12/29 03:26:12;;;;;;;9.63;7.38;;;;;;;;;;5075165;28;20024;-48
2023/12/29 03:28:38;;;;;;;7.65;6.00;;;;;;;;;;5074664;28;20044;-49
2023/12/29 03:31:03;;;;;;;9.93;7.25;;;;;;;;;;5075409;28;20023;-47
2023/12/29 03:33:29;;;;;;;9.35;7.50;;;;;;;;;;5074198;28;20127;-49
2023/12/29 03:35:54;;;;;;;9.02;6.10;;;;;;;;;;5074742;28;20020;-49
2023/12/29 03:38:19;;;;;;;7.40;6.20;;;;;;;;;;5074169;28;20094;-50
2023/12/29 03:40:45;;;;;;;10.20;6.50;;;;;;;;;;5073471;28;20521;-49
2023/12/29 03:43:10;;;;;;;9.73;6.75;;;;;;;;;;5076692;28;20102;-51
2023/12/29 03:45:36;;;;;;;7.00;5.70;;;;;;;;;;5074116;28;20489;-48
2023/12/29 03:48:01;;;;;;;10.35;7.50;;;;;;;;;;5071921;28;20028;-50
2023/12/29 03:50:27;;;;;;;9.45;5.43;;;;;;;;;;5073911;28;20111;-47
2023/12/29 03:52:52;;;;;;;7.35;5.93;;;;;;;;;;5076812;28;20040;-50
2023/12/29 03:55:18;;;;;;;6.78;5.97;;;;;;;;;;5075316;28;20127;-48
2023/12/29 03:57:43;;;;;;;6.38;5.55;;;;;;;;;;5058209;28;20036;-46
2023/12/29 04:00:12;;;;;;;7.18;5.40;;;;;;;;;;5072064;28;20037;-46
2023/12/29 04:02:38;;;;;;;8.50;5.45;;;;;;;;;;5074052;28;20027;-50
2023/12/29 04:05:05;;;;;;;7.97;5.28;;;;;;;;;;5071692;28;20040;-47
2023/12/29 04:07:30;;;;;;;7.25;5.03;;;;;;;;;;5082062;28;20036;-46
2023/12/29 04:09:56;;;;;;;5.55;4.95;;;;;;;;;;5072851;28;20576;-46
2023/12/29 04:12:21;;;;;;;7.13;5.28;;;;;;;;;;5074596;28;20032;-45
2023/12/29 04:14:46;;;;;;;5.60;4.65;;;;;;;;;;5073845;28;20036;-45
2023/12/29 04:17:13;;;;;;;5.97;4.75;;;;;;;;;;5077416;28;20035;-49
2023/12/29 04:19:40;;;;;;;7.65;5.10;;;;;;;;;;5073568;28;20037;-47
2023/12/29 04:22:07;;;;;;;7.82;6.00;;;;;;;;;;5074183;28;20024;-47
2023/12/29 04:24:32;;;;;;;7.38;5.15;;;;;;;;;;5073525;28;20040;-47
2023/12/29 04:26:57;;;;;;;5.65;4.80;;;;;;;;;;5072741;28;20020;-44
2023/12/29 04:29:23;;;;;;;7.00;5.05;;;;;;;;;;5073668;28;20486;-46
2023/12/29 04:31:48;;;;;;;6.13;5.53;;;;;;;;;;5073107;28;20649;-46
2023/12/29 04:34:13;;;;;;;6.53;5.55;;;;;;;;;;5086213;28;20562;-46
2023/12/29 04:36:39;;;;;;;7.28;6.10;;;;;;;;;;5072091;28;20430;-46
2023/12/29 04:39:04;;;;;;;5.72;4.75;;;;;;;;;;5073068;28;20063;-50
2023/12/29 04:41:30;;;;;;;5.60;4.80;;;;;;;;;;5074266;28;20020;-44
2023/12/29 04:43:55;;;;;;;5.72;4.63;;;;;;;;;;5073365;28;20040;-47
2023/12/29 04:46:20;;;;;;;5.97;5.45;;;;;;;;;;5073438;28;20070;-47
2023/12/29 04:48:46;;;;;;;6.75;5.43;;;;;;;;;;5073927;28;20036;-46
2023/12/29 04:51:11;;;;;;;8.07;5.93;;;;;;;;;;5074624;28;20115;-45
2023/12/29 04:53:37;;;;;;;6.22;4.88;;;;;;;;;;5073312;28;20037;-44
2023/12/29 04:56:02;;;;;;;6.85;5.93;;;;;;;;;;5076859;28;20036;-47
2023/12/29 04:58:28;;;;;;;5.70;5.10;;;;;;;;;;5078346;28;20040;-45
2023/12/29 05:00:53;;;;;;;6.72;6.03;;;;;;;;;;5073491;28;20424;-45
2023/12/29 05:03:18;;;;;;;5.97;5.32;;;;;;;;;;5073724;28;20518;-44
2023/12/29 05:05:44;;;;;;;6.93;5.13;;;;;;;;;;5074717;28;20074;-47
2023/12/29 05:08:09;;;;;;;7.40;5.50;;;;;;;;;;5072747;28;20037;-43
2023/12/29 05:10:36;;;;;;;6.40;4.82;;;;;;;;;;5069875;28;20009;-44
2023/12/29 05:13:02;;;;;;;8.20;6.40;;;;;;;;;;5073340;28;20037;-47
2023/12/29 05:15:27;;;;;;;6.47;5.15;;;;;;;;;;5073745;28;20025;-45
2023/12/29 05:17:52;;;;;;;6.03;5.22;;;;;;;;;;5074065;28;20092;-44
2023/12/29 05:20:18;;;;;;;6.22;5.63;;;;;;;;;;5069277;28;20037;-45
2023/12/29 05:22:43;;;;;;;5.55;5.05;;;;;;;;;;5068519;28;20023;-43
2023/12/29 05:25:09;;;;;;;6.20;4.68;;;;;;;;;;5074534;28;20047;-48
2023/12/29 05:27:34;;;;;;;5.80;4.70;;;;;;;;;;5078638;28;20016;-46
2023/12/29 05:30:00;;;;;;;7.45;5.68;;;;;;;;;;5079674;28;20036;-46
2023/12/29 05:32:25;;;;;;;5.45;3.97;;;;;;;;;;5066678;28;20021;-45
2023/12/29 05:34:50;;;;;;;6.35;5.75;;;;;;;;;;5073886;28;20067;-46
2023/12/29 05:37:16;;;;;;;6.35;4.68;;;;;;;;;;5074418;28;20025;-43
2023/12/29 05:39:42;;;;;;;5.70;4.57;;;;;;;;;;5076488;28;20074;-45
2023/12/29 05:42:07;;;;;;;7.47;6.78;;;;;;;;;;5078504;28;20028;-45
2023/12/29 05:44:36;;;;;;;6.10;5.40;;;;;;;;;;5083308;28;20032;-46
2023/12/29 05:47:01;;;;;;;6.18;5.07;;;;;;;;;;5077605;28;20031;-44
2023/12/29 05:49:27;;;;;;;7.05;5.35;;;;;;;;;;5077209;28;20037;-44
2023/12/29 05:51:52;;;;;;;7.75;5.22;;;;;;;;;;5070927;28;20009;-49
2023/12/29 05:54:18;;;;;;;9.00;4.93;;;;;;;;;;5071750;28;20067;-47
2023/12/29 05:56:43;;;;;;;6.57;5.00;;;;;;;;;;5071355;28;20101;-46
2023/12/29 05:59:09;;;;;;;7.22;4.65;;;;;;;;;;5087977;28;20454;-48
2023/12/29 06:01:34;;;;;;;5.57;5.07;;;;;;;;;;5073766;28;20031;-49
2023/12/29 06:03:59;;;;;;;6.03;4.38;;;;;;;;;;5071265;28;20406;-49
2023/12/29 06:06:25;;;;;;;5.55;4.43;;;;;;;;;;5071703;28;20024;-47
2023/12/29 06:08:50;;;;;;;7.68;5.07;;;;;;;;;;5076638;28;20036;-47
2023/12/29 06:11:16;;;;;;;4.53;3.72;;;;;;;;;;5076090;28;20024;-49
2023/12/29 06:13:42;;;;;;;5.05;4.25;;;;;;;;;;5076217;28;20032;-51
2023/12/29 06:16:07;;;;;;;5.10;4.68;;;;;;;;;;5079820;28;20020;-47
2023/12/29 06:18:33;;;;;;;6.15;3.95;;;;;;;;;;5087907;28;20028;-46
2023/12/29 06:20:58;;;;;;;10.50;5.40;;;;;;;;;;5075992;28;20462;-48
2023/12/29 06:23:25;;;;;;;7.22;5.97;;;;;;;;;;5080642;28;20063;-44
2023/12/29 06:25:51;;;;;;;5.88;5.35;;;;;;;;;;5077203;28;20039;-45
2023/12/29 06:28:16;;;;;;;4.47;3.83;;;;;;;;;;5081678;28;20060;-49
2023/12/29 06:30:42;;;;;;;6.32;5.68;;;;;;;;;;5075580;28;20444;-45
2023/12/29 06:33:07;;;;;;;4.38;3.97;;;;;;;;;;5071993;28;20088;-50
2023/12/29 06:35:33;;;;;;;5.57;4.28;;;;;;;;;;5077000;28;20039;-50
2023/12/29 06:37:58;;;;;;;6.20;4.68;;;;;;;;;;5088211;28;20023;-44
2023/12/29 06:40:24;;;;;;;5.28;4.78;;;;;;;;;;5077835;28;20062;-48
2023/12/29 06:42:49;;;;;;;5.97;4.85;;;;;;;;;;5075610;28;20032;-46
2023/12/29 06:45:15;;;;;;;5.13;4.55;;;;;;;;;;5081300;28;20033;-45
2023/12/29 06:47:40;;;;;;;4.32;3.92;;;;;;;;;;5077069;28;20035;-48
2023/12/29 06:50:07;;;;;;;4.97;4.47;;;;;;;;;;5077369;28;20044;-45
2023/12/29 06:52:34;;;;;;;5.20;4.25;;;;;;;;;;5078157;28;20033;-45
2023/12/29 06:55:01;;;;;;;7.10;4.45;;;;;;;;;;5077592;28;20029;-45
2023/12/29 06:57:27;;;;;;;4.70;3.70;;;;;;;;;;5071452;28;20569;-47
2023/12/29 06:59:52;;;;;;;4.72;3.80;;;;;;;;;;5076619;28;20595;-47
2023/12/29 07:02:17;;;;;;;5.00;4.00;;;;;;;;;;5076145;28;20025;-44
2023/12/29 07:04:43;;;;;;;5.72;5.32;;;;;;;;;;5082256;28;20032;-46
2023/12/29 07:07:08;;;;;;;6.35;4.68;;;;;;;;;;5075702;28;20044;-44
2023/12/29 07:09:34;;;;;;;5.63;4.47;;;;;;;;;;5078461;28;20056;-45
2023/12/29 07:11:59;;;;;;;6.57;5.20;;;;;;;;;;5074984;28;20367;-46
2023/12/29 07:14:24;;;;;;;5.72;4.72;;;;;;;;;;5063837;28;20079;-47
2023/12/29 07:16:50;;;;;;;5.15;4.20;;;;;;;;;;5075151;28;20429;-45
2023/12/29 07:19:15;;;;;;;5.85;4.03;;;;;;;;;;5058797;28;20508;-49
2023/12/29 07:21:40;;;;;;;5.55;4.30;;;;;;;;;;5074152;28;20088;-48
2023/12/29 07:24:06;;;;;;;5.47;4.72;;;;;;;;;;5075149;28;20465;-50
2023/12/29 07:26:34;;;;;;;4.78;4.20;;;;;;;;;;5072554;28;20076;-49
2023/12/29 07:29:00;;;;;;;4.57;3.42;;;;;;;;;;5075662;28;20032;-47
2023/12/29 07:31:25;;;;;;;5.00;4.25;;;;;;;;;;5088851;28;20042;-49
2023/12/29 07:33:51;;;;;;;4.55;3.53;;;;;;;;;;5075941;28;20094;-46
2023/12/29 07:36:16;;;;;;;3.75;3.42;;;;;;;;;;5073186;28;20024;-48
2023/12/29 07:38:42;;;;;;;5.20;4.65;;;;;;;;;;5078169;28;20039;-46
2023/12/29 07:41:08;;;;;;;4.25;3.65;;;;;;;;;;5070980;28;20020;-48
2023/12/29 07:43:35;;;;;;;3.67;3.17;;;;;;;;;;5075205;28;20767;-45
2023/12/29 07:46:01;;;;;;;3.35;3.00;;;;;;;;;;5072199;28;20024;-49
2023/12/29 07:48:26;;;;;;;5.82;3.90;;;;;;;;;;5075440;28;20428;-47
2023/12/29 07:50:52;;;;;;;5.38;3.35;;;;;;;;;;5072721;28;20016;-44
2023/12/29 07:53:17;;;;;;;4.20;3.40;;;;;;;;;;5074748;28;20094;-46
2023/12/29 07:55:43;;;;;;;4.80;3.35;;;;;;;;;;5076299;28;20027;-49
2023/12/29 07:58:10;;;;;;;4.07;3.53;;;;;;;;;;5077456;28;20032;-46
2023/12/29 08:00:36;;;;;;;5.72;3.58;;;;;;;;;;5074150;28;20096;-45
2023/12/29 08:03:01;;;;;;;5.07;4.25;;;;;;;;;;5072301;28;20449;-49
2023/12/29 08:05:27;;;;;;;7.13;4.38;;;;;;;;;;5077833;28;20073;-47
2023/12/29 08:07:52;;;;;;;5.05;4.38;;;;;;;;;;5072628;28;20033;-49
2023/12/29 08:10:17;;;;;;;5.55;4.00;;;;;;;;;;5070849;28;20506;-44
2023/12/29 08:12:43;;;;;;;7.28;5.30;;;;;;;;;;5073957;28;20036;-48
2023/12/29 08:15:08;;;;;;;6.47;4.93;;;;;;;;;;5070217;28;20392;-44
2023/12/29 08:17:34;;;;;;;5.32;3.95;;;;;;;;;;5079101;28;20033;-45
2023/12/29 08:19:59;;;;;;;3.47;3.03;;;;;;;;;;5078286;28;20609;-44
2023/12/29 08:22:24;;;;;;;4.63;2.67;;;;;;;;;;5074952;28;20543;-48
2023/12/29 08:24:50;;;;;;;3.03;2.17;;;;;;;;;;5078575;28;21166;-47
2023/12/29 08:27:24;;;;;;;3.38;3.08;;;;;;;;;;5075679;28;20025;-48
2023/12/29 08:29:49;;;;;;;4.97;2.58;;;;;;;;;;5076423;28;20055;-46
2023/12/29 08:32:15;;;;;;;5.00;3.33;;;;;;;;;;5076119;28;20028;-47
2023/12/29 08:34:40;;;;;;;3.80;2.85;;;;;;;;;;5068642;28;20178;-45
2023/12/29 08:37:05;;;;;;;3.28;2.85;;;;;;;;;;5054717;28;20403;-48
2023/12/29 08:39:31;;;;;;;4.03;2.67;;;;;;;;;;5068966;28;20497;-45
2023/12/29 08:41:56;;;;;;;4.13;2.85;;;;;;;;;;5073248;28;20023;-45
2023/12/29 08:44:22;;;;;;;5.28;3.78;;;;;;;;;;5073161;28;20033;-46
2023/12/29 08:46:48;;;;;;;5.90;3.42;;;;;;;;;;5070048;28;20032;-45
2023/12/29 08:49:13;;;;;;;4.43;3.00;;;;;;;;;;5073924;28;20040;-45
2023/12/29 08:51:39;;;;;;;4.43;3.58;;;;;;;;;;5080282;28;20036;-45
2023/12/29 08:54:04;;;;;;;5.90;3.70;;;;;;;;;;5075442;28;20091;-47
2023/12/29 08:56:30;;;;;;;4.07;2.80;;;;;;;;;;5076942;28;20086;-46
2023/12/29 08:58:55;;;;;;;4.00;3.28;;;;;;;;;;5071176;28;20090;-44
2023/12/29 09:01:21;;;;;;;4.50;3.85;;;;;;;;;;5078062;28;20021;-47
2023/12/29 09:03:46;;;;;;;3.53;2.78;;;;;;;;;;5077532;28;20048;-46
2023/12/29 09:06:11;;;;;;;4.28;2.65;;;;;;;;;;5076890;28;20016;-47
2023/12/29 09:08:37;;;;;;;3.60;2.42;;;;;;;;;;5080831;28;20036;-48
2023/12/29 09:11:04;;;;;;;3.55;2.88;;;;;;;;;;5082638;28;20059;-47
2023/12/29 09:13:29;;;;;;;3.08;2.78;;;;;;;;;;5061687;28;20040;-48
2023/12/29 09:15:55;;;;;;;4.05;2.58;;;;;;;;;;5077721;28;20027;-45
2023/12/29 09:18:20;;;;;;;3.67;2.70;;;;;;;;;;5075735;28;20033;-44
2023/12/29 09:20:46;;;;;;;3.70;3.25;;;;;;;;;;5079378;28;20021;-45
2023/12/29 09:23:11;;;;;;;4.75;3.33;;;;;;;;;;5085542;28;20561;-46
2023/12/29 09:25:37;;;;;;;4.07;3.13;;;;;;;;;;5078268;28;20020;-46
2023/12/29 09:28:03;;;;;;;3.58;3.08;;;;;;;;;;5075386;28;20032;-44
2023/12/29 09:30:28;;;;;;;10.25;3.03;;;;;;;;;;5086257;28;20032;-44
2023/12/29 09:32:53;;;;;;;4.75;3.40;;;;;;;;;;5080228;28;20021;-45
2023/12/29 09:35:20;;;;;;;4.07;3.00;;;;;;;;;;5074984;28;20043;-45
2023/12/29 09:37:49;;;;;;;3.72;3.42;;;;;;;;;;5078192;28;20021;-46
2023/12/29 09:40:15;;;;;;;5.57;3.55;;;;;;;;;;5083398;28;20046;-45
2023/12/29 09:42:44;;;;;;;4.85;3.80;;;;;;;;;;5083430;28;20024;-46
2023/12/29 09:45:12;;;;;;;4.57;3.05;;;;;;;;;;5073866;28;20036;-46
2023/12/29 09:47:42;;;;;;;4.05;3.42;;;;;;;;;;5078379;28;20028;-48
2023/12/29 09:50:11;;;;;;;4.93;3.38;;;;;;;;;;5079214;28;20064;-48
2023/12/29 09:52:41;;;;;;;4.68;3.00;;;;;;;;;;5078246;28;20035;-50
2023/12/29 09:55:11;;;;;;;4.25;3.05;;;;;;;;;;5075509;28;20048;-48
2023/12/29 09:57:40;;;;;;;3.70;3.35;;;;;;;;;;5076466;28;20029;-48
2023/12/29 10:00:09;;;;;;;4.75;3.63;;;;;;;;;;5077295;28;20059;-46
2023/12/29 10:02:35;;;;;;;5.63;3.78;;;;;;;;;;5077170;28;20020;-48
2023/12/29 10:05:03;;;;;;;4.85;3.17;;;;;;;;;;5073629;28;20529;-46
2023/12/29 10:07:33;;;;;;;3.80;3.15;;;;;;;;;;5073295;28;20028;-44
2023/12/29 10:10:01;;;;;;;4.25;3.25;;;;;;;;;;5076257;28;20081;-44
2023/12/29 10:12:28;;;;;;;5.28;3.10;;;;;;;;;;5076987;28;20024;-47
2023/12/29 10:15:05;;;;;;;4.88;4.20;;;;;;;;;;5076489;28;20055;-46
2023/12/29 10:17:52;;;;;;;4.38;3.83;;;;;;;;;;5072973;28;20032;-47
2023/12/29 10:20:57;;;;;;;8.50;4.63;;;;;;;;;;5066096;28;20067;-44
2023/12/29 10:23:34;;;;;;;4.47;3.65;;;;;;;;;;5079001;28;20035;-47
2023/12/29 10:26:00;;;;;;;5.68;3.83;;;;;;;;;;5080714;28;20035;-48
2023/12/29 10:28:25;;;;;;;3.58;3.28;;;;;;;;;;5081540;28;20060;-46
2023/12/29 10:30:50;;;;;;;4.55;3.88;;;;;;;;;;5072562;28;20043;-46
2023/12/29 10:33:21;;;;;;;4.75;3.90;;;;;;;;;;5075254;28;20041;-48
2023/12/29 10:36:03;;;;;;;6.38;3.40;;;;;;;;;;5077696;28;20051;-47
2023/12/29 10:38:30;;;;;;;6.30;3.75;;;;;;;;;;5077730;28;20574;-46
2023/12/29 10:41:12;;;;;;;6.70;3.92;;;;;;;;;;5069395;28;20040;-47
2023/12/29 10:43:37;;;;;;;5.07;3.63;;;;;;;;;;5073154;28;20043;-45
2023/12/29 10:46:09;;;;;;;3.35;2.97;;;;;;;;;;5075221;28;20029;-45
2023/12/29 10:48:35;;;;;;;3.42;2.80;;;;;;;;;;5080364;28;20040;-47
2023/12/29 10:51:03;;;;;;;4.47;4.05;;;;;;;;;;5074489;28;20024;-48
2023/12/29 10:53:38;;;;;;;7.55;4.72;;;;;;;;;;5072233;28;20033;-45
2023/12/29 10:56:04;;;;;;;3.35;2.78;;;;;;;;;;5070470;28;20029;-45
2023/12/29 10:58:31;;;;;;;6.07;3.85;;;;;;;;;;5074485;28;20681;-45
2023/12/29 11:00:56;;;;;;;5.10;3.33;;;;;;;;;;5075737;28;20024;-47
2023/12/29 11:03:23;;;;;;;4.68;2.65;;;;;;;;;;5073869;28;20393;-45
2023/12/29 11:05:49;;;;;;;4.18;3.08;;;;;;;;;;5078119;28;20074;-47
2023/12/29 11:08:19;;;;;;;3.60;3.30;;;;;;;;;;5073564;28;20052;-50
2023/12/29 11:10:45;;;;;;;7.28;3.53;;;;;;;;;;5076153;28;20039;-49
2023/12/29 11:13:13;;;;;;;4.75;3.33;;;;;;;;;;5080018;28;20112;-47
2023/12/29 11:15:43;;;;;;;4.97;3.63;;;;;;;;;;5075403;28;20041;-46
2023/12/29 11:18:11;;;;;;;5.90;3.55;;;;;;;;;;5075437;28;20024;-47
2023/12/29 11:20:38;;;;;;;6.03;3.95;;;;;;;;;;5077287;28;20019;-45
2023/12/29 11:23:07;;;;;;;4.20;3.47;;;;;;;;;;5072835;28;20021;-44
2023/12/29 11:25:32;;;;;;;3.20;2.90;;;;;;;;;;5075266;28;20040;-48
2023/12/29 11:27:59;;;;;;;3.83;3.08;;;;;;;;;;5072841;28;20398;-46
2023/12/29 11:30:25;;;;;;;3.92;3.38;;;;;;;;;;5075148;28;20039;-45
2023/12/29 11:33:02;;;;;;;6.45;3.35;;;;;;;;;;5071353;28;20028;-46
2023/12/29 11:35:37;;;;;;;3.65;3.35;;;;;;;;;;5079824;28;20044;-46
2023/12/29 11:38:27;;;;;;;3.67;2.80;;;;;;;;;;5069424;28;20051;-46
2023/12/29 11:41:02;;;;;;;4.40;3.63;;;;;;;;;;5072795;28;20032;-46
2023/12/29 11:43:28;;;;;;;3.50;2.78;;;;;;;;;;5074425;28;20044;-45
2023/12/29 11:45:53;;;;;;;3.97;3.20;;;;;;;;;;5069734;28;20042;-48
2023/12/29 11:48:57;;;;;;;5.38;3.30;;;;;;;;;;5078287;28;20430;-50
2023/12/29 11:51:43;;;;;;;3.35;2.83;;;;;;;;;;5073938;28;20036;-49
2023/12/29 11:54:09;;;;;;;4.35;3.35;;;;;;;;;;5072705;28;20125;-45
2023/12/29 11:56:40;;;;;;;4.50;4.07;;;;;;;;;;5077476;28;20378;-50
2023/12/29 11:59:23;;;;;;;4.40;4.00;;;;;;;;;;5078399;28;20085;-47
2023/12/29 12:01:50;;;;;;;3.90;3.13;;;;;;;;;;5078064;28;20078;-47
2023/12/29 12:04:44;;;;;;;7.00;4.30;;;;;;;;;;5077662;28;20033;-46
2023/12/29 12:07:35;;;;;;;3.83;3.28;;;;;;;;;;5083087;28;20031;-51
2023/12/29 12:10:24;;;;;;;5.07;3.30;;;;;;;;;;5068437;28;20040;-46
2023/12/29 12:12:51;;;;;;;5.50;3.50;;;;;;;;;;5071560;28;20028;-46
2023/12/29 12:15:29;;;;;;;3.53;3.22;;;;;;;;;;5073540;28;20577;-46
2023/12/29 12:17:59;;;;;;;4.45;3.10;;;;;;;;;;5088222;28;20115;-45
2023/12/29 12:20:28;;;;;;;4.10;3.03;;;;;;;;;;5087741;28;20055;-51
2023/12/29 12:23:02;;;;;;;4.38;3.80;;;;;;;;;;5083687;28;20046;-49
2023/12/29 12:25:29;;;;;;;4.72;4.05;;;;;;;;;;5074552;28;20082;-44
2023/12/29 12:27:58;;;;;;;3.95;3.60;;;;;;;;;;5078285;28;20474;-45
2023/12/29 12:30:24;;;;;;;4.45;3.28;;;;;;;;;;5085527;28;20021;-44
2023/12/29 12:33:00;;;;;;;3.38;2.97;;;;;;;;;;5076893;28;20458;-46
2023/12/29 12:35:28;;;;;;;4.68;4.20;;;;;;;;;;5076258;28;20043;-45
2023/12/29 12:38:13;;;;;;;3.40;3.10;;;;;;;;;;5080861;28;20032;-45
2023/12/29 12:40:39;;;;;;;5.78;4.20;;;;;;;;;;5073998;28;20040;-47
2023/12/29 12:43:05;;;;;;;4.43;4.03;;;;;;;;;;5073693;28;20089;-47
2023/12/29 12:45:34;;;;;;;4.32;3.92;;;;;;;;;;5071206;28;20028;-46
2023/12/29 12:48:03;;;;;;;5.38;4.13;;;;;;;;;;5078417;28;20028;-48
2023/12/29 12:50:29;;;;;;;;;;;;;;;;;;5072522;28;20032;-45
2023/12/29 12:52:57;;;;;;;4.35;3.95;;;;;;;;;;5075031;28;20358;-49
2023/12/29 12:55:23;;;;;;;3.80;3.28;;;;;;;;;;5079379;28;20078;-48
2023/12/29 12:57:48;;;;;;;5.30;3.60;;;;;;;;;;5074389;28;20451;-45
2023/12/29 13:00:15;;;;;;;4.32;3.53;;;;;;;;;;5066621;28;20045;-44
2023/12/29 13:02:44;;;;;;;5.47;4.13;;;;;;;;;;5078524;28;20020;-45
2023/12/29 13:05:11;;;;;;;4.03;3.65;;;;;;;;;;5075404;28;20047;-47
2023/12/29 13:07:36;;;;;;;3.85;3.42;;;;;;;;;;5076086;28;20021;-49
2023/12/29 13:10:03;;;;;;;4.47;3.45;;;;;;;;;;5076845;28;20131;-49
2023/12/29 13:12:29;;;;;;;4.10;3.55;;;;;;;;;;5071817;28;20031;-46
2023/12/29 13:15:05;;;;;;;4.97;4.53;;;;;;;;;;5071199;28;20029;-45
2023/12/29 13:17:31;;;;;;;5.18;4.43;;;;;;;;;;5073542;28;20063;-47
2023/12/29 13:20:00;;;;;;;6.68;5.03;;;;;;;;;;5074268;28;20040;-47
2023/12/29 13:22:28;;;;;;;6.57;5.88;;;;;;;;;;5072614;28;20020;-46
2023/12/29 13:24:54;;;;;;;6.10;5.45;;;;;;;;;;5080114;28;20024;-46
2023/12/29 13:27:21;;;;;;;6.95;6.10;;;;;;;;;;5083383;28;20044;-50
2023/12/29 13:29:47;;;;;;;7.97;6.72;;;;;;;;;;5071404;28;20024;-44
2023/12/29 13:32:24;;;;;;;7.68;6.13;;;;;;;;;;5073655;28;20029;-48
2023/12/29 13:35:10;;;;;;;7.93;6.45;;;;;;;;;;5074928;28;20032;-48
2023/12/29 13:37:53;;;;;;;8.20;6.38;;;;;;;;;;5067974;28;20522;-46
2023/12/29 13:40:37;;;;;;;7.25;6.28;;;;;;;;;;5066648;28;20037;-48
2023/12/29 13:43:06;;;;;;;8.45;6.75;;;;;;;;;;5073922;28;20490;-46
2023/12/29 13:45:32;;;;;;;8.57;6.90;;;;;;;;;;5073081;28;20491;-47
2023/12/29 13:47:58;;;;;;;10.45;7.50;;;;;;;;;;5077001;28;20024;-45
2023/12/29 13:50:24;;;;;;;8.95;7.65;;;;;;;;;;5077207;28;20016;-45
2023/12/29 13:52:50;;;;;;;9.57;6.95;;;;;;;;;;5058268;28;20586;-46
2023/12/29 13:55:22;;;;;;;8.15;6.00;;;;;;;;;;5076651;28;20601;-46
2023/12/29 13:57:48;;;;;;;8.70;7.80;;;;;;;;;;5076739;28;20024;-49
2023/12/29 14:00:26;;;;;;;8.25;7.05;;;;;;;;;;5078788;28;20089;-49
2023/12/29 14:02:55;;;;;;;9.80;8.55;;;;;;;;;;5082166;28;20073;-45
2023/12/29 14:05:31;;;;;;;;;;;;;;;;;;5077141;28;20040;-45
2023/12/29 14:08:08;;;;;;;7.07;6.38;;;;;;;;;;5075605;28;19909;-46
2023/12/29 14:10:35;;;;;;;8.38;7.18;;;;;;;;;;5081160;28;20035;-45
2023/12/29 14:13:12;;;;;;;9.02;7.13;;;;;;;;;;5078968;28;20061;-46
2023/12/29 14:15:40;;;;;;;7.30;6.60;;;;;;;;;;5077712;28;20044;-47
2023/12/29 14:18:46;;;;;;;8.07;5.75;;;;;;;;;;5077602;28;20059;-44
2023/12/29 14:21:26;;;;;;;6.10;5.40;;;;;;;;;;5076663;28;20124;-47
2023/12/29 14:24:15;;;;;;;7.60;6.18;;;;;;;;;;5074319;28;20122;-48
2023/12/29 14:26:52;;;;;;;8.63;6.53;;;;;;;;;;5076263;28;20379;-44
2023/12/29 14:29:18;;;;;;;10.18;6.82;;;;;;;;;;5076014;28;20091;-45
2023/12/29 14:31:44;;;;;;;6.93;5.75;;;;;;;;;;5055730;28;20040;-45
2023/12/29 14:34:12;;;;;;;9.55;7.15;;;;;;;;;;5069600;28;20086;-44
2023/12/29 14:36:38;;;;;;;9.65;6.35;;;;;;;;;;5076226;28;20505;-45
2023/12/29 14:39:04;;;;;;;8.40;6.80;;;;;;;;;;5073580;28;20036;-44
2023/12/29 14:41:30;;;;;;;9.93;7.47;;;;;;;;;;5081834;28;20470;-46